Charter Quote
Worldwide +1-877-727-2538 Call
Select Language Lang
SAFETY RELIABILITY EXPERIENCE

Nowra Airport (YSNW) - Jet Charter Services

AIRPORT INFORMATION
ICAOYSNW
IATANOA
LOCATIONNowra, Australia
FACILITY TYPEAIRPORT
Runway Length (ft) Width (ft) Surface Type Elevation (ft)
26/08 6870 148 ASP 399.73770
21/03 6713 148 ASP 399.73770

At Paramount Business Jets you can hire chartered private jets to and from Nowra Airport with as little as 4 hours of notice. All flights booked via Paramount Business Jets are operated by certified direct air carriers that meet and exceed the FAA part 135 and 121 protocol or a foreign equivalent safety authority. Furthermore, Paramount Business Jets subscribes to ARGUS for their third party safety checks of operators, aircraft, and crews prior each and every flight to and from Nowra Airport and worldwide.

  • Quote a trip using Nowra Airport or call us 24/7 - 365 days a year at +1-877-727-2538.
Questions? Call +1-877-727-2538

METAR Weather Data at Nowra Airport, YSNW, NOA

STATIONYSNW
OBSERVEDTue Mar 19, 20:30 UTC
NOWTue Mar 19, 20:48 UTC
AGE18 min ago
WINDW at 6 mph
VISIBILITY16 miles
CLOUDSmostly cloudy
TEMP64°F (18°C)
DEWPT64°F (18°C)
HUMIDITY100%
BAROMETER1014 hPa (29.94 in Hg)
METARYSNW 192030Z 27005KT 9999 FEW014 BKN044 18/18 Q1014 INTER 2030/2330 5000 SHRA SCT010 BKN015

Call us on +1-877-727-2538 (24 Hours) to Hire a Private Jet or Get a Quick Quote.

Find Airports Near any Location

Processing
...